createdAt,value
2023-10-12T00:00:49.413Z,17.12
2023-10-12T00:03:56.918Z,17.12
2023-10-12T00:06:59.607Z,17.09
2023-10-12T00:10:14.712Z,17.09
2023-10-12T00:13:21.341Z,17.15
2023-10-12T00:16:23.913Z,17.12
2023-10-12T00:19:26.207Z,17.11
2023-10-12T00:22:29.925Z,17.20
2023-10-12T00:25:35.361Z,17.34
2023-10-12T00:28:40.001Z,17.43
2023-10-12T00:31:43.519Z,17.46
2023-10-12T00:34:48.783Z,17.48
2023-10-12T00:37:50.351Z,17.57
2023-10-12T00:40:56.899Z,17.68
2023-10-12T00:44:10.475Z,17.77
2023-10-12T00:47:13.790Z,17.83
2023-10-12T00:50:17.246Z,17.90
2023-10-12T00:53:32.076Z,17.88
2023-10-12T00:56:33.765Z,17.89
2023-10-12T00:59:35.660Z,17.93
2023-10-12T01:02:41.016Z,17.96
2023-10-12T01:05:43.454Z,17.95
2023-10-12T01:08:45.107Z,18.00
2023-10-12T01:11:58.103Z,18.06
2023-10-12T01:15:05.670Z,18.08
2023-10-12T01:18:11.045Z,18.09
2023-10-12T01:21:12.671Z,18.10
2023-10-12T01:24:14.704Z,18.08
2023-10-12T01:27:16.610Z,18.07
2023-10-12T01:30:30.166Z,18.05
2023-10-12T01:33:31.846Z,18.00
2023-10-12T01:36:33.932Z,17.98
2023-10-12T01:39:40.314Z,17.96
2023-10-12T01:42:41.927Z,17.88
2023-10-12T01:45:44.804Z,17.82
2023-10-12T01:48:46.582Z,17.77
2023-10-12T01:51:49.327Z,17.77
2023-10-12T01:54:50.891Z,17.70
2023-10-12T01:57:55.392Z,17.67
2023-10-12T02:01:06.170Z,17.68
2023-10-12T02:04:08.130Z,17.67
2023-10-12T02:07:11.671Z,17.66
2023-10-12T02:10:13.648Z,17.68
2023-10-12T02:13:15.154Z,17.67
2023-10-12T02:16:25.078Z,17.67
2023-10-12T02:19:34.263Z,17.65
2023-10-12T02:22:37.258Z,17.62
2023-10-12T02:25:51.615Z,17.62
2023-10-12T02:28:57.068Z,17.62
2023-10-12T02:32:16.213Z,17.64
2023-10-12T02:35:20.656Z,17.69
2023-10-12T02:38:28.632Z,17.70
2023-10-12T02:41:30.114Z,17.68
2023-10-12T02:44:35.305Z,17.69
2023-10-12T02:47:41.690Z,17.69
2023-10-12T02:51:02.741Z,17.72
2023-10-12T02:54:05.514Z,17.70
2023-10-12T02:57:06.978Z,17.67
2023-10-12T03:00:13.527Z,17.60
2023-10-12T03:03:38.299Z,17.58
2023-10-12T03:06:54.836Z,17.49
2023-10-12T03:09:59.960Z,17.40
2023-10-12T03:13:05.942Z,17.43
2023-10-12T03:16:15.296Z,17.44
2023-10-12T03:19:27.054Z,17.39
2023-10-12T03:22:35.500Z,17.40
2023-10-12T03:25:44.149Z,17.34
2023-10-12T03:28:46.635Z,17.28
2023-10-12T03:31:48.496Z,17.24
2023-10-12T03:34:50.963Z,17.19
2023-10-12T03:38:01.798Z,17.17
2023-10-12T03:41:41.538Z,17.08
2023-10-12T03:44:45.880Z,16.99
2023-10-12T03:48:04.308Z,16.97
2023-10-12T03:51:17.986Z,16.98
2023-10-12T03:54:27.900Z,16.92
2023-10-12T03:57:35.922Z,16.91
2023-10-12T04:00:51.997Z,16.93
2023-10-12T04:04:00.062Z,16.88
2023-10-12T04:07:02.367Z,16.86
2023-10-12T04:10:14.678Z,16.89
2023-10-12T04:13:29.351Z,16.86
2023-10-12T04:16:41.278Z,16.85
2023-10-12T04:19:46.913Z,16.85
2023-10-12T04:22:51.206Z,16.82
2023-10-12T04:26:09.933Z,16.79
2023-10-12T04:29:14.940Z,16.71
2023-10-12T04:32:37.768Z,16.68
2023-10-12T04:35:52.030Z,16.53
2023-10-12T04:39:12.397Z,16.48
2023-10-12T04:42:21.698Z,16.46
2023-10-12T04:45:28.734Z,16.44
2023-10-12T04:48:32.899Z,16.46
2023-10-12T04:51:40.800Z,16.50
2023-10-12T04:55:21.205Z,16.52
2023-10-12T04:58:25.571Z,16.44
2023-10-12T05:01:40.550Z,16.47
2023-10-12T05:04:42.351Z,16.47
2023-10-12T05:07:56.727Z,16.44
2023-10-12T05:10:59.038Z,16.35
2023-10-12T05:14:03.159Z,16.26
2023-10-12T05:17:04.631Z,16.27
2023-10-12T05:20:06.689Z,16.29
2023-10-12T05:23:09.189Z,16.25
2023-10-12T05:26:10.908Z,16.24
2023-10-12T05:29:32.453Z,16.23
2023-10-12T05:32:44.316Z,16.24
2023-10-12T05:35:53.957Z,16.29
2023-10-12T05:39:12.983Z,16.22
2023-10-12T05:42:15.747Z,16.24
2023-10-12T05:45:24.036Z,16.28
2023-10-12T05:48:25.716Z,16.30
2023-10-12T05:51:28.891Z,16.37
2023-10-12T05:54:32.211Z,16.36
2023-10-12T05:57:35.233Z,16.36
2023-10-12T06:00:37.156Z,16.38
2023-10-12T06:03:47.483Z,16.41
2023-10-12T06:06:49.389Z,16.49
2023-10-12T06:09:54.273Z,16.46
2023-10-12T06:12:57.394Z,16.45
2023-10-12T06:15:59.405Z,16.54
2023-10-12T06:19:01.717Z,16.62
2023-10-12T06:22:24.654Z,16.81
2023-10-12T06:25:29.558Z,17.00
2023-10-12T06:28:31.022Z,17.06
2023-10-12T06:31:32.839Z,17.14
2023-10-12T06:34:35.958Z,17.25
2023-10-12T06:37:51.010Z,17.35
2023-10-12T06:41:01.919Z,17.48
2023-10-12T06:44:22.310Z,17.62
2023-10-12T06:47:29.377Z,17.83
2023-10-12T06:50:30.878Z,17.94
2023-10-12T06:53:37.746Z,18.00
2023-10-12T06:56:42.196Z,18.04
2023-10-12T06:59:59.568Z,18.09
2023-10-12T07:03:04.760Z,18.14
2023-10-12T07:06:15.543Z,18.20
2023-10-12T07:09:17.133Z,18.25
2023-10-12T07:12:19.289Z,18.31
2023-10-12T07:15:22.992Z,18.38
2023-10-12T07:18:24.576Z,18.46
2023-10-12T07:21:26.602Z,18.50
2023-10-12T07:24:31.670Z,18.51
2023-10-12T07:27:50.056Z,18.54
2023-10-12T07:31:14.386Z,18.60
2023-10-12T07:34:20.564Z,18.68
2023-10-12T07:37:22.945Z,18.71
2023-10-12T07:40:24.558Z,18.77
2023-10-12T07:43:26.166Z,18.85
2023-10-12T07:46:28.882Z,18.95
2023-10-12T07:49:36.057Z,19.09
2023-10-12T07:52:47.879Z,19.17
2023-10-12T07:55:56.283Z,19.31
2023-10-12T07:58:58.834Z,19.52
2023-10-12T08:02:09.176Z,19.66
2023-10-12T08:05:24.878Z,19.92
2023-10-12T08:08:35.675Z,20.01
2023-10-12T08:11:40.674Z,20.07
2023-10-12T08:14:42.342Z,20.10
2023-10-12T08:17:46.891Z,20.11
2023-10-12T08:20:59.112Z,20.17
2023-10-12T08:24:04.397Z,20.22
2023-10-12T08:27:07.662Z,20.22
2023-10-12T08:30:23.120Z,20.30
2023-10-12T08:33:44.720Z,20.29
2023-10-12T08:37:04.886Z,20.42
2023-10-12T08:40:09.428Z,20.38
2023-10-12T08:43:11.201Z,20.46
2023-10-12T08:46:14.255Z,20.45
2023-10-12T08:49:34.864Z,20.51
2023-10-12T08:52:40.049Z,20.50
2023-10-12T08:55:42.668Z,20.54
2023-10-12T08:58:51.981Z,20.61
2023-10-12T09:01:53.562Z,20.58
2023-10-12T09:04:55.867Z,20.61
2023-10-12T09:08:14.021Z,20.60
2023-10-12T09:11:15.831Z,20.74
2023-10-12T09:14:18.439Z,21.00
2023-10-12T09:17:29.463Z,21.13
2023-10-12T09:20:33.105Z,21.24
2023-10-12T09:23:38.774Z,21.34
2023-10-12T09:26:48.284Z,21.36
2023-10-12T09:29:58.977Z,21.26
2023-10-12T09:33:29.649Z,21.30
2023-10-12T09:36:31.105Z,21.39
2023-10-12T09:39:36.564Z,21.41
2023-10-12T09:42:38.460Z,21.29
2023-10-12T09:45:46.157Z,21.37
2023-10-12T09:48:48.327Z,21.68
2023-10-12T09:52:00.723Z,21.77
2023-10-12T09:55:15.314Z,21.78
2023-10-12T09:58:25.812Z,21.79
2023-10-12T10:01:50.961Z,21.70
2023-10-12T10:05:02.390Z,21.62
2023-10-12T10:08:05.857Z,21.59
2023-10-12T10:11:13.465Z,21.60
2023-10-12T10:14:21.722Z,21.58
2023-10-12T10:17:37.033Z,21.57
2023-10-12T10:21:01.752Z,21.57
2023-10-12T10:24:04.519Z,21.45
2023-10-12T10:27:16.376Z,21.43
2023-10-12T10:30:26.325Z,21.41
2023-10-12T10:33:30.188Z,21.44
2023-10-12T10:36:37.365Z,21.52
2023-10-12T10:39:44.240Z,21.60
2023-10-12T10:42:58.417Z,21.61
2023-10-12T10:46:05.230Z,21.67
2023-10-12T10:49:32.221Z,21.63
2023-10-12T10:52:33.837Z,21.64
2023-10-12T10:55:36.635Z,21.62
2023-10-12T10:58:38.637Z,21.60
2023-10-12T11:01:50.131Z,21.56
2023-10-12T11:04:58.588Z,21.72
2023-10-12T11:08:21.285Z,21.60
2023-10-12T11:11:38.150Z,21.58
2023-10-12T11:14:44.205Z,21.56
2023-10-12T11:17:58.606Z,21.64
2023-10-12T11:21:02.502Z,21.71
2023-10-12T11:24:05.261Z,21.75
2023-10-12T11:27:09.036Z,21.68
2023-10-12T11:30:20.351Z,21.70
2023-10-12T11:33:29.110Z,21.63
2023-10-12T11:36:30.687Z,21.59
2023-10-12T11:39:41.773Z,21.61
2023-10-12T11:42:53.679Z,21.59
2023-10-12T11:46:04.564Z,21.48
2023-10-12T11:49:09.436Z,21.55
2023-10-12T11:52:16.806Z,21.46
2023-10-12T11:55:20.105Z,21.45
2023-10-12T11:58:21.735Z,21.36
2023-10-12T12:01:24.382Z,21.29
2023-10-12T12:04:35.357Z,21.24
2023-10-12T12:07:37.007Z,21.19
2023-10-12T12:10:47.355Z,21.42
2023-10-12T12:13:52.813Z,21.43
2023-10-12T12:16:54.339Z,21.35
2023-10-12T12:19:55.851Z,21.42
2023-10-12T12:23:05.032Z,21.35
2023-10-12T12:26:11.097Z,21.24
2023-10-12T12:29:13.092Z,21.09
2023-10-12T12:32:14.904Z,21.17
2023-10-12T12:35:17.013Z,21.09
2023-10-12T12:38:30.739Z,21.02
2023-10-12T12:41:35.910Z,20.94
2023-10-12T12:44:38.259Z,20.89
2023-10-12T12:47:39.762Z,20.84
2023-10-12T12:50:44.233Z,20.82
2023-10-12T12:53:48.159Z,20.78
2023-10-12T12:56:54.601Z,20.76
2023-10-12T12:59:56.102Z,20.73
2023-10-12T13:03:01.744Z,20.66
2023-10-12T13:06:08.416Z,20.64
2023-10-12T13:09:29.478Z,20.61
2023-10-12T13:12:32.734Z,20.59
2023-10-12T13:15:42.636Z,20.56
2023-10-12T13:18:47.504Z,20.48
2023-10-12T13:21:50.540Z,20.44
2023-10-12T13:24:55.993Z,20.41
2023-10-12T13:27:57.653Z,20.39
2023-10-12T13:30:59.882Z,20.37
2023-10-12T13:34:06.722Z,20.37
2023-10-12T13:37:08.626Z,20.39
2023-10-12T13:40:16.397Z,20.36
2023-10-12T13:43:23.263Z,20.38
2023-10-12T13:46:24.972Z,20.41
2023-10-12T13:49:26.872Z,20.41
2023-10-12T13:52:28.331Z,20.46
2023-10-12T13:55:30.783Z,20.50
2023-10-12T13:58:35.207Z,20.53
2023-10-12T14:01:38.373Z,20.54
2023-10-12T14:04:41.969Z,20.57
2023-10-12T14:07:43.500Z,20.60
2023-10-12T14:10:45.397Z,20.61
2023-10-12T14:13:48.551Z,20.62
2023-10-12T14:16:50.155Z,20.63
2023-10-12T14:19:52.104Z,20.65
2023-10-12T14:22:58.599Z,20.67
2023-10-12T14:26:00.136Z,20.63
2023-10-12T14:29:07.008Z,20.66
2023-10-12T14:32:09.473Z,20.65
2023-10-12T14:35:11.319Z,20.67
2023-10-12T14:38:15.200Z,20.62
2023-10-12T14:41:19.717Z,20.61
2023-10-12T14:44:21.646Z,20.67
2023-10-12T14:47:23.261Z,20.75
2023-10-12T14:50:25.300Z,20.84
2023-10-12T14:53:29.230Z,20.78
2023-10-12T14:56:33.503Z,20.75
2023-10-12T14:59:35.357Z,20.76
2023-10-12T15:02:38.433Z,20.77
2023-10-12T15:05:40.348Z,20.79
2023-10-12T15:08:42.185Z,20.84
2023-10-12T15:11:45.302Z,20.94
2023-10-12T15:14:48.400Z,20.96
2023-10-12T15:17:49.908Z,20.97
2023-10-12T15:20:56.388Z,20.97
2023-10-12T15:24:03.668Z,20.95
2023-10-12T15:27:05.439Z,20.97
2023-10-12T15:30:12.251Z,20.96
2023-10-12T15:33:14.034Z,20.95
2023-10-12T15:36:17.460Z,20.96
2023-10-12T15:39:19.386Z,20.92
2023-10-12T15:42:21.087Z,20.91
2023-10-12T15:45:25.332Z,20.81
2023-10-12T15:48:28.015Z,20.77
2023-10-12T15:51:29.681Z,20.75
2023-10-12T15:54:32.917Z,20.72
2023-10-12T15:57:34.461Z,20.71
2023-10-12T16:00:36.018Z,20.57
2023-10-12T16:03:37.596Z,20.45
2023-10-12T16:06:39.153Z,20.37
2023-10-12T16:09:41.307Z,20.31
2023-10-12T16:12:43.602Z,20.09
2023-10-12T16:15:45.608Z,20.02
2023-10-12T16:18:47.831Z,19.94
2023-10-12T16:21:50.010Z,19.92
2023-10-12T16:24:53.307Z,19.91
2023-10-12T16:27:55.112Z,19.84
2023-10-12T16:30:56.600Z,19.72
2023-10-12T16:34:00.365Z,19.59
2023-10-12T16:37:02.956Z,19.54
2023-10-12T16:40:06.912Z,19.51
2023-10-12T16:43:09.816Z,19.44
2023-10-12T16:46:17.177Z,19.39
2023-10-12T16:49:19.059Z,19.30
2023-10-12T16:52:20.709Z,19.26
2023-10-12T16:55:22.308Z,19.28
2023-10-12T16:58:23.888Z,19.34
2023-10-12T17:01:25.686Z,19.35
2023-10-12T17:04:32.384Z,19.32
2023-10-12T17:07:35.738Z,19.34
2023-10-12T17:10:37.304Z,19.30
2023-10-12T17:13:38.903Z,19.23
2023-10-12T17:16:41.258Z,19.22
2023-10-12T17:19:42.754Z,19.20
2023-10-12T17:22:44.514Z,19.20
2023-10-12T17:25:47.053Z,19.18
2023-10-12T17:28:48.991Z,19.18
2023-10-12T17:31:50.928Z,19.19
2023-10-12T17:34:54.512Z,19.19
2023-10-12T17:37:56.638Z,19.17
2023-10-12T17:41:00.805Z,19.10
2023-10-12T17:44:02.890Z,19.00
2023-10-12T17:47:04.528Z,18.96
2023-10-12T17:50:16.836Z,18.92
2023-10-12T17:53:18.431Z,18.95
2023-10-12T17:56:20.649Z,18.98
2023-10-12T17:59:22.542Z,18.98
2023-10-12T18:02:24.314Z,18.98
2023-10-12T18:05:28.193Z,18.98
2023-10-12T18:08:29.643Z,19.00
2023-10-12T18:11:31.298Z,19.00
2023-10-12T18:14:32.774Z,18.99
2023-10-12T18:17:35.084Z,18.93
2023-10-12T18:20:36.729Z,18.85
2023-10-12T18:23:40.589Z,18.70
2023-10-12T18:26:42.229Z,18.70
2023-10-12T18:29:45.100Z,18.73
2023-10-12T18:32:49.505Z,18.79
2023-10-12T18:35:51.080Z,18.78
2023-10-12T18:38:52.510Z,18.70
2023-10-12T18:41:53.999Z,18.68
2023-10-12T18:44:55.452Z,18.73
2023-10-12T18:47:57.095Z,18.67
2023-10-12T18:51:00.028Z,18.64
2023-10-12T18:54:02.813Z,18.61
2023-10-12T18:57:04.407Z,18.61
2023-10-12T19:00:16.985Z,18.62
2023-10-12T19:03:19.192Z,18.63
2023-10-12T19:06:20.678Z,18.63
2023-10-12T19:09:22.653Z,18.63
2023-10-12T19:12:25.865Z,18.57
2023-10-12T19:15:27.357Z,18.53
2023-10-12T19:18:33.198Z,18.53
2023-10-12T19:21:35.739Z,18.54
2023-10-12T19:24:37.772Z,18.47
2023-10-12T19:27:39.230Z,18.44
2023-10-12T19:30:41.503Z,18.37
2023-10-12T19:33:43.350Z,18.43
2023-10-12T19:36:45.104Z,18.45
2023-10-12T19:39:46.772Z,18.49
2023-10-12T19:43:01.763Z,18.53
2023-10-12T19:46:07.974Z,18.54
2023-10-12T19:49:10.116Z,18.54
2023-10-12T19:52:12.706Z,18.54
2023-10-12T19:55:14.310Z,18.47
2023-10-12T19:58:15.987Z,18.42
2023-10-12T20:01:21.511Z,18.37
2023-10-12T20:04:23.693Z,18.37
2023-10-12T20:07:25.370Z,18.36
2023-10-12T20:10:26.875Z,18.40
2023-10-12T20:13:34.125Z,18.43
2023-10-12T20:16:35.770Z,18.41
2023-10-12T20:19:37.936Z,18.43
2023-10-12T20:22:40.675Z,18.41
2023-10-12T20:25:48.382Z,18.41
2023-10-12T20:28:49.916Z,18.33
2023-10-12T20:31:51.841Z,18.32
2023-10-12T20:34:53.365Z,18.28
2023-10-12T20:37:57.234Z,18.31
2023-10-12T20:40:58.965Z,18.33
2023-10-12T20:44:00.462Z,18.28
2023-10-12T20:47:01.976Z,18.26
2023-10-12T20:50:06.721Z,18.28
2023-10-12T20:53:16.519Z,18.31
2023-10-12T20:56:37.115Z,18.33
2023-10-12T20:59:47.068Z,18.33
2023-10-12T21:02:48.693Z,18.35
2023-10-12T21:05:51.514Z,18.39
2023-10-12T21:08:58.103Z,18.40
2023-10-12T21:12:15.448Z,18.42
2023-10-12T21:15:24.201Z,18.43
2023-10-12T21:18:35.001Z,18.40
2023-10-12T21:21:36.444Z,18.44
2023-10-12T21:24:38.893Z,18.48
2023-10-12T21:27:46.346Z,18.49
2023-10-12T21:30:51.930Z,18.43
2023-10-12T21:34:14.005Z,18.36
2023-10-12T21:37:19.588Z,18.30
2023-10-12T21:40:21.154Z,18.46
2023-10-12T21:43:22.649Z,18.34
2023-10-12T21:46:28.236Z,18.29
2023-10-12T21:49:33.696Z,18.24
2023-10-12T21:52:35.368Z,18.20
2023-10-12T21:55:36.951Z,18.12
2023-10-12T21:58:39.913Z,18.07
2023-10-12T22:02:03.798Z,18.05
2023-10-12T22:05:14.514Z,17.91
2023-10-12T22:08:20.076Z,17.88
2023-10-12T22:11:21.667Z,17.94
2023-10-12T22:14:42.140Z,17.97
2023-10-12T22:17:48.818Z,17.95
2023-10-12T22:20:57.783Z,17.98
2023-10-12T22:23:59.287Z,18.01
2023-10-12T22:27:01.111Z,17.99
2023-10-12T22:30:04.929Z,17.97
2023-10-12T22:33:08.073Z,17.99
2023-10-12T22:36:09.585Z,17.99
2023-10-12T22:39:16.160Z,17.98
2023-10-12T22:42:18.406Z,17.98
2023-10-12T22:45:21.712Z,17.97
2023-10-12T22:48:23.222Z,18.00
2023-10-12T22:51:26.365Z,18.00
2023-10-12T22:54:36.978Z,18.00
2023-10-12T22:57:39.012Z,18.01
2023-10-12T23:00:40.438Z,18.05
2023-10-12T23:03:43.019Z,18.04
2023-10-12T23:06:44.528Z,18.05
2023-10-12T23:09:46.122Z,18.02
2023-10-12T23:12:50.641Z,17.99
2023-10-12T23:15:56.252Z,17.99
2023-10-12T23:19:13.980Z,18.01
2023-10-12T23:22:24.619Z,18.00
2023-10-12T23:25:26.272Z,18.00
2023-10-12T23:28:27.775Z,17.98
2023-10-12T23:31:30.330Z,17.99
2023-10-12T23:34:41.641Z,17.95
2023-10-12T23:37:59.728Z,17.97
2023-10-12T23:41:10.196Z,17.98
2023-10-12T23:44:42.046Z,18.02
2023-10-12T23:47:43.501Z,18.12
2023-10-12T23:51:00.002Z,18.07
2023-10-12T23:54:21.570Z,18.04
2023-10-12T23:57:23.109Z,18.04
